Time;durP1;ratioP1;P1;durP2;ratioP2;P2;SDS_P1;SDS_P2;PMS_P1;PMS_P2;Temp;Humidity;BMP_temperature;BMP_pressure;BME280_temperature;BME280_humidity;BME280_pressure;Samples;Min_cycle;Max_cycle;Signal;HPM_P1;HPM_P2
2023/09/20 00:01:23;;;;;;;0.40;0.20;;;14.10;99.90;;;;;;5002619;28;20465;-85
2023/09/20 00:03:48;;;;;;;0.40;0.23;;;14.10;99.90;;;;;;5011604;28;20281;-83
2023/09/20 00:06:17;;;;;;;0.40;0.30;;;14.00;99.90;;;;;;4984495;28;21138;-82
2023/09/20 00:08:43;;;;;;;0.40;0.20;;;14.00;99.90;;;;;;5009756;28;20277;-84
2023/09/20 00:11:15;;;;;;;0.80;0.60;;;14.00;99.90;;;;;;4991490;28;20876;-81
2023/09/20 00:13:48;;;;;;;0.40;0.30;;;14.10;99.90;;;;;;5015300;28;20526;-82
2023/09/20 00:16:14;;;;;;;0.40;0.20;;;14.20;99.90;;;;;;5011219;28;20448;-83
2023/09/20 00:18:39;;;;;;;0.40;0.20;;;14.20;99.90;;;;;;5010078;28;20476;-79
2023/09/20 00:21:05;;;;;;;0.40;0.20;;;14.10;99.90;;;;;;4984863;28;20248;-82
2023/09/20 00:23:30;;;;;;;0.40;0.30;;;14.10;99.90;;;;;;5019212;28;20202;-78
2023/09/20 00:25:57;;;;;;;0.40;0.30;;;14.20;99.90;;;;;;5006560;28;20198;-82
2023/09/20 00:28:22;;;;;;;0.40;0.23;;;14.40;99.90;;;;;;5001960;28;20194;-76
2023/09/20 00:30:48;;;;;;;0.40;0.20;;;14.40;99.90;;;;;;5006783;28;20459;-83
2023/09/20 00:33:14;;;;;;;0.40;0.30;;;14.40;99.90;;;;;;5010164;28;20224;-82
2023/09/20 00:35:40;;;;;;;0.40;0.20;;;14.50;99.90;;;;;;5013834;28;20302;-81
2023/09/20 00:38:06;;;;;;;0.40;0.20;;;14.40;99.90;;;;;;4985686;28;20437;-81
2023/09/20 00:40:33;;;;;;;0.40;0.20;;;14.40;99.90;;;;;;4986613;28;20477;-83
2023/09/20 00:42:59;;;;;;;0.40;0.20;;;14.30;99.90;;;;;;4986911;28;20465;-79
2023/09/20 00:45:25;;;;;;;0.40;0.20;;;14.30;99.90;;;;;;5005662;28;20563;-84
2023/09/20 00:47:56;;;;;;;0.40;0.20;;;14.30;99.90;;;;;;5019789;28;20225;-79
2023/09/20 00:50:23;;;;;;;0.40;0.20;;;14.20;99.90;;;;;;5008415;28;20449;-77
2023/09/20 00:52:53;;;;;;;0.40;0.20;;;14.20;99.90;;;;;;5008514;28;20475;-85
2023/09/20 00:55:21;;;;;;;0.40;0.20;;;14.30;99.90;;;;;;5012195;28;20433;-83
2023/09/20 00:57:51;;;;;;;0.40;0.20;;;14.40;99.90;;;;;;5008558;28;20449;-84
2023/09/20 01:00:20;;;;;;;0.40;0.20;;;14.50;99.90;;;;;;5010398;28;20553;-83
2023/09/20 01:02:49;;;;;;;0.40;0.20;;;14.40;99.90;;;;;;4986550;28;20500;-79
2023/09/20 01:05:17;;;;;;;0.40;0.20;;;14.50;99.90;;;;;;4984290;28;20944;-81
2023/09/20 01:07:43;;;;;;;0.40;0.20;;;14.50;99.90;;;;;;5004081;28;21038;-82
2023/09/20 01:10:09;;;;;;;0.40;0.20;;;14.50;99.90;;;;;;4985078;28;20475;-84
2023/09/20 01:12:37;;;;;;;0.40;0.20;;;14.50;99.90;;;;;;4979618;28;20208;-83
2023/09/20 01:15:03;;;;;;;0.40;0.30;;;14.60;99.90;;;;;;4984065;28;20445;-83
2023/09/20 01:17:29;;;;;;;0.40;0.30;;;14.60;99.90;;;;;;5007983;28;20444;-80
2023/09/20 01:19:54;;;;;;;0.40;0.30;;;14.60;99.90;;;;;;4988124;28;20468;-77
2023/09/20 01:22:20;;;;;;;0.40;0.20;;;14.50;99.90;;;;;;5007614;28;20195;-82
2023/09/20 01:24:46;;;;;;;0.40;0.27;;;14.40;99.90;;;;;;5005109;28;20215;-79
2023/09/20 01:27:13;;;;;;;0.40;0.20;;;14.40;99.90;;;;;;4986946;28;20235;-82
2023/09/20 01:29:38;;;;;;;0.40;0.20;;;14.50;99.90;;;;;;5002122;28;20486;-79
2023/09/20 01:32:04;;;;;;;0.40;0.20;;;14.60;99.90;;;;;;4985006;28;21020;-85
2023/09/20 01:34:31;;;;;;;0.40;0.20;;;14.60;99.90;;;;;;4992354;28;20218;-80
2023/09/20 01:36:57;;;;;;;0.40;0.20;;;14.60;99.90;;;;;;5012382;28;20433;-83
2023/09/20 01:39:24;;;;;;;0.40;0.20;;;14.70;99.90;;;;;;4988041;28;20461;-81
2023/09/20 01:41:50;;;;;;;0.40;0.20;;;14.70;99.90;;;;;;5007386;28;20508;-79
2023/09/20 01:44:16;;;;;;;0.40;0.20;;;15.60;99.90;;;;;;4987584;28;20472;-80
2023/09/20 01:46:41;;;;;;;0.40;0.20;;;14.90;99.90;;;;;;5002982;28;20449;-80
2023/09/20 01:49:08;;;;;;;0.40;0.30;;;15.60;99.90;;;;;;4990118;28;20201;-80
2023/09/20 01:51:33;;;;;;;0.50;0.43;;;15.10;99.90;;;;;;5008604;28;20526;-77
2023/09/20 01:53:59;;;;;;;0.40;0.20;;;15.10;99.90;;;;;;5017363;28;20469;-81
2023/09/20 01:56:26;;;;;;;0.40;0.20;;;15.20;99.90;;;;;;5007657;28;20445;-84
2023/09/20 01:58:51;;;;;;;0.40;0.30;;;15.30;99.90;;;;;;5008662;28;20207;-80
2023/09/20 02:01:17;;;;;;;0.40;0.20;;;15.30;99.90;;;;;;5004978;28;20468;-85
2023/09/20 02:03:43;;;;;;;0.40;0.20;;;15.20;99.90;;;;;;4986171;28;20472;-79
2023/09/20 02:06:09;;;;;;;0.40;0.30;;;15.30;99.90;;;;;;4996331;28;21055;-82
2023/09/20 02:08:35;;;;;;;0.40;0.30;;;15.20;99.90;;;;;;4984801;28;20189;-82
2023/09/20 02:11:00;;;;;;;0.40;0.20;;;15.30;99.90;;;;;;5007393;28;20441;-86
2023/09/20 02:13:26;;;;;;;0.40;0.30;;;15.30;99.90;;;;;;5005905;28;20206;-80
2023/09/20 02:15:53;;;;;;;0.40;0.30;;;15.30;99.90;;;;;;5001356;28;20193;-79
2023/09/20 02:18:19;;;;;;;0.40;0.23;;;15.20;99.90;;;;;;5003087;28;20190;-82
2023/09/20 02:20:45;;;;;;;0.40;0.20;;;15.20;99.90;;;;;;5004536;28;20503;-80
2023/09/20 02:23:15;;;;;;;0.40;0.20;;;15.10;99.90;;;;;;4984728;28;20205;-81
2023/09/20 02:25:41;;;;;;;0.40;0.20;;;15.00;99.90;;;;;;4985244;28;20188;-83
2023/09/20 02:28:07;;;;;;;0.40;0.20;;;15.00;99.90;;;;;;5002797;28;20491;-80
2023/09/20 02:30:35;;;;;;;0.40;0.20;;;14.90;99.90;;;;;;4995547;28;20456;-82
2023/09/20 02:33:06;;;;;;;0.40;0.20;;;14.80;99.90;;;;;;5003050;28;20464;-83
2023/09/20 02:35:32;;;;;;;0.40;0.30;;;14.90;99.90;;;;;;4995570;28;20742;-83
2023/09/20 02:37:59;;;;;;;0.40;0.30;;;14.80;99.90;;;;;;5007827;28;20561;-78
2023/09/20 02:40:28;;;;;;;0.40;0.20;;;14.80;99.90;;;;;;4986235;28;20567;-79
2023/09/20 02:42:58;;;;;;;0.40;0.20;;;14.80;99.90;;;;;;5006675;28;20464;-83
2023/09/20 02:45:24;;;;;;;0.40;0.20;;;14.80;99.90;;;;;;5001568;28;20452;-79
2023/09/20 02:47:51;;;;;;;0.40;0.20;;;14.80;99.90;;;;;;4998532;28;20510;-79
2023/09/20 02:50:18;;;;;;;0.40;0.30;;;14.80;99.90;;;;;;4999178;28;20445;-81
2023/09/20 02:52:45;;;;;;;0.40;0.30;;;14.80;99.90;;;;;;5014765;28;20445;-79
2023/09/20 02:55:13;;;;;;;0.40;0.20;;;14.70;99.90;;;;;;5012955;28;20986;-82
2023/09/20 02:57:40;;;;;;;0.40;0.20;;;14.60;99.90;;;;;;5015953;28;20551;-76
2023/09/20 03:00:18;;;;;;;0.40;0.20;;;14.60;99.90;;;;;;5000344;28;20500;-76
2023/09/20 03:02:55;;;;;;;0.40;0.20;;;14.70;99.90;;;;;;4982711;28;20453;-80
2023/09/20 03:05:27;;;;;;;0.40;0.23;;;14.70;99.90;;;;;;4985228;28;20523;-83
2023/09/20 03:07:54;;;;;;;0.40;0.20;;;14.60;99.90;;;;;;5010987;28;20509;-81
2023/09/20 03:10:21;;;;;;;0.40;0.20;;;14.60;99.90;;;;;;5019768;28;20445;-77
2023/09/20 03:12:48;;;;;;;0.40;0.20;;;14.60;99.90;;;;;;5009147;28;20568;-83
2023/09/20 03:15:21;;;;;;;0.40;0.20;;;14.50;99.90;;;;;;4999664;28;20433;-80
2023/09/20 03:17:51;;;;;;;0.40;0.20;;;14.50;99.90;;;;;;4986987;28;20473;-79
2023/09/20 03:20:24;;;;;;;0.40;0.20;;;14.50;99.90;;;;;;5008573;28;20584;-77
2023/09/20 03:22:54;;;;;;;0.40;0.20;;;14.50;99.90;;;;;;4982002;28;20472;-80
2023/09/20 03:25:24;;;;;;;0.40;0.20;;;14.70;99.90;;;;;;4987086;28;20433;-80
2023/09/20 03:27:51;;;;;;;0.40;0.30;;;14.90;99.90;;;;;;5003262;28;20436;-82
2023/09/20 03:30:17;;;;;;;0.40;0.20;;;15.00;99.90;;;;;;5000973;28;20576;-78
2023/09/20 03:32:46;;;;;;;0.40;0.30;;;15.00;99.90;;;;;;5002548;28;20936;-80
2023/09/20 03:35:14;;;;;;;0.40;0.20;;;15.10;99.90;;;;;;5004372;28;20919;-80
2023/09/20 03:37:41;;;;;;;0.40;0.20;;;15.00;99.90;;;;;;5008345;28;20441;-84
2023/09/20 03:40:11;;;;;;;0.40;0.20;;;15.00;99.90;;;;;;5008659;28;20472;-82
2023/09/20 03:42:40;;;;;;;0.40;0.20;;;15.00;99.90;;;;;;5014848;28;20444;-81
2023/09/20 03:45:16;;;;;;;0.73;0.73;;;15.20;99.90;;;;;;5003203;28;20447;-80
2023/09/20 03:47:49;;;;;;;0.40;0.20;;;15.00;99.90;;;;;;4982692;28;20451;-83
2023/09/20 03:50:19;;;;;;;0.40;0.30;;;14.90;99.90;;;;;;5002474;28;20445;-78
2023/09/20 03:52:45;;;;;;;0.40;0.20;;;14.80;99.90;;;;;;4997464;28;20495;-81
2023/09/20 03:55:11;;;;;;;0.40;0.20;;;14.80;99.90;;;;;;5002083;28;20444;-84
2023/09/20 03:57:40;;;;;;;0.40;0.20;;;14.70;99.90;;;;;;5004201;28;20786;-81
2023/09/20 04:00:07;;;;;;;0.40;0.20;;;14.60;99.90;;;;;;4974758;28;20212;-81
2023/09/20 04:02:33;;;;;;;0.40;0.20;;;14.50;99.90;;;;;;5000504;28;20441;-82
2023/09/20 04:05:10;;;;;;;0.40;0.20;;;14.40;99.90;;;;;;4983296;28;20448;-86
2023/09/20 04:07:36;;;;;;;0.40;0.20;;;14.40;99.90;;;;;;5004973;28;20876;-82
2023/09/20 04:10:02;;;;;;;0.40;0.30;;;14.40;99.90;;;;;;5018118;28;20433;-77
2023/09/20 04:12:27;;;;;;;0.40;0.20;;;14.40;99.90;;;;;;5016572;28;20433;-84
2023/09/20 04:14:54;;;;;;;0.40;0.20;;;14.40;99.90;;;;;;5007398;28;20480;-78
2023/09/20 04:17:21;;;;;;;0.40;0.20;;;14.40;99.90;;;;;;5001336;28;20214;-81
2023/09/20 04:19:47;;;;;;;0.40;0.20;;;14.40;99.90;;;;;;4984843;28;20500;-80
2023/09/20 04:22:14;;;;;;;0.40;0.20;;;14.50;99.90;;;;;;4981798;28;20445;-86
2023/09/20 04:24:39;;;;;;;0.40;0.20;;;14.40;99.90;;;;;;5001422;28;20468;-84
2023/09/20 04:27:05;;;;;;;0.40;0.20;;;14.40;99.90;;;;;;4998354;28;20449;-82
2023/09/20 04:29:31;;;;;;;0.40;0.20;;;14.40;99.90;;;;;;4996802;28;20190;-81
2023/09/20 04:31:57;;;;;;;0.40;0.20;;;14.40;99.90;;;;;;5000675;28;20202;-83
2023/09/20 04:34:23;;;;;;;0.40;0.20;;;14.40;99.90;;;;;;4987502;28;20472;-81
2023/09/20 04:36:49;;;;;;;0.40;0.30;;;14.40;99.90;;;;;;5006343;28;20469;-85
2023/09/20 04:39:14;;;;;;;0.40;0.20;;;14.40;99.90;;;;;;5007943;28;20285;-76
2023/09/20 04:41:41;;;;;;;0.40;0.20;;;14.40;99.90;;;;;;5001332;28;20452;-79
2023/09/20 04:44:07;;;;;;;0.40;0.20;;;14.60;99.90;;;;;;5004764;28;20590;-78
2023/09/20 04:46:35;;;;;;;0.40;0.30;;;14.40;99.90;;;;;;4996000;28;20441;-80
2023/09/20 04:49:00;;;;;;;0.40;0.20;;;14.40;99.90;;;;;;4990881;28;20459;-76
2023/09/20 04:51:26;;;;;;;0.50;0.30;;;14.40;99.90;;;;;;4980609;28;20441;-82
2023/09/20 04:53:52;;;;;;;0.40;0.20;;;14.20;99.90;;;;;;4984413;28;20443;-78
2023/09/20 04:56:18;;;;;;;0.40;0.20;;;14.20;99.90;;;;;;4984132;28;20328;-81
2023/09/20 04:58:43;;;;;;;0.40;0.23;;;14.20;99.90;;;;;;4991002;28;20956;-84
2023/09/20 05:01:14;;;;;;;0.40;0.30;;;14.20;99.90;;;;;;5008082;28;20194;-83
2023/09/20 05:03:41;;;;;;;0.40;0.20;;;14.20;99.90;;;;;;5002658;28;20284;-86
2023/09/20 05:06:07;;;;;;;0.40;0.30;;;14.20;99.90;;;;;;4996850;28;21071;-78
2023/09/20 05:08:33;;;;;;;0.40;0.30;;;14.50;99.90;;;;;;5003174;28;21885;-81
2023/09/20 05:10:58;;;;;;;0.40;0.20;;;14.30;99.90;;;;;;4987673;28;20481;-82
2023/09/20 05:13:24;;;;;;;0.40;0.20;;;14.40;99.90;;;;;;4997378;28;20210;-82
2023/09/20 05:15:50;;;;;;;0.40;0.20;;;14.20;99.90;;;;;;5011556;28;20279;-78
2023/09/20 05:18:16;;;;;;;0.40;0.20;;;14.10;99.90;;;;;;4993201;28;20221;-81
2023/09/20 05:20:45;;;;;;;0.40;0.20;;;13.90;99.90;;;;;;4991471;28;20206;-80
2023/09/20 05:23:11;;;;;;;0.40;0.30;;;14.00;99.90;;;;;;4992288;28;20461;-82
2023/09/20 05:25:37;;;;;;;0.40;0.30;;;13.90;99.90;;;;;;4986480;28;20498;-84
2023/09/20 05:28:03;;;;;;;0.40;0.20;;;14.10;99.90;;;;;;5005269;28;20448;-78
2023/09/20 05:30:30;;;;;;;0.40;0.20;;;14.80;99.90;;;;;;4990954;28;20447;-84
2023/09/20 05:32:56;;;;;;;0.40;0.20;;;15.80;99.90;;;;;;4988396;28;21093;-78
2023/09/20 05:35:22;;;;;;;0.40;0.30;;;16.20;99.90;;;;;;5009663;28;20480;-81
2023/09/20 05:37:48;;;;;;;0.40;0.30;;;16.80;99.90;;;;;;4992035;28;20638;-79
2023/09/20 05:40:17;;;;;;;0.40;0.20;;;18.00;99.90;;;;;;5014573;28;20480;-80
2023/09/20 05:42:44;;;;;;;0.40;0.30;;;19.80;99.90;;;;;;5013624;28;20178;-82
2023/09/20 05:45:10;;;;;;;0.50;0.40;;;21.80;99.90;;;;;;5009719;28;20508;-83
2023/09/20 05:47:36;;;;;;;0.40;0.20;;;20.60;99.90;;;;;;5009489;28;20469;-79
2023/09/20 05:50:02;;;;;;;0.40;0.20;;;20.30;99.90;;;;;;4988860;28;20806;-82
2023/09/20 05:52:28;;;;;;;0.40;0.27;;;20.30;99.90;;;;;;5007559;28;20445;-82
2023/09/20 05:54:55;;;;;;;0.40;0.30;;;21.90;99.90;;;;;;4992383;28;20448;-76
2023/09/20 05:57:22;;;;;;;0.40;0.30;;;22.60;99.90;;;;;;5023284;28;20182;-83
2023/09/20 05:59:47;;;;;;;0.40;0.20;;;24.00;99.90;;;;;;5011780;28;20470;-82
2023/09/20 06:02:13;;;;;;;0.40;0.30;;;25.20;99.90;;;;;;5000082;28;20653;-80
2023/09/20 06:04:39;;;;;;;0.40;0.20;;;24.50;99.90;;;;;;5008043;28;20217;-80
2023/09/20 06:07:05;;;;;;;0.40;0.30;;;24.80;99.90;;;;;;5007916;28;20218;-78
2023/09/20 06:09:31;;;;;;;0.40;0.30;;;24.70;99.90;;;;;;4995844;28;20440;-77
2023/09/20 06:11:56;;;;;;;0.40;0.20;;;24.50;99.90;;;;;;5012624;28;20671;-78
2023/09/20 06:14:22;;;;;;;0.50;0.40;;;24.70;99.90;;;;;;5017825;28;20473;-77
2023/09/20 06:16:48;;;;;;;0.77;0.73;;;25.30;99.90;;;;;;5012864;28;20959;-84
2023/09/20 06:19:16;;;;;;;0.40;0.30;;;26.30;99.90;;;;;;5015579;28;20468;-81
2023/09/20 06:21:43;;;;;;;0.40;0.30;;;26.50;99.60;;;;;;5019513;28;20461;-78
2023/09/20 06:24:11;;;;;;;0.40;0.30;;;27.60;99.50;;;;;;5022151;28;20568;-77
2023/09/20 06:26:41;;;;;;;0.40;0.30;;;28.20;96.60;;;;;;5018506;28;20497;-78
2023/09/20 06:29:09;;;;;;;0.50;0.40;;;28.20;96.90;;;;;;5013837;28;20457;-82
2023/09/20 06:31:37;;;;;;;0.40;0.30;;;29.10;94.70;;;;;;5015552;28;20440;-82
2023/09/20 06:34:04;;;;;;;0.40;0.30;;;30.20;92.10;;;;;;5011309;28;20496;-78
2023/09/20 06:36:30;;;;;;;0.50;0.30;;;29.10;86.70;;;;;;5011382;28;20456;-84
2023/09/20 06:38:55;;;;;;;0.40;0.30;;;28.30;90.80;;;;;;5013536;28;20472;-79
2023/09/20 06:41:23;;;;;;;0.40;0.30;;;27.30;92.30;;;;;;5014626;28;20676;-84
2023/09/20 06:43:49;;;;;;;0.40;0.20;;;27.00;91.80;;;;;;4997356;28;20271;-84
2023/09/20 06:46:14;;;;;;;0.40;0.30;;;27.00;94.10;;;;;;5014091;28;20465;-81
2023/09/20 06:48:40;;;;;;;0.43;0.30;;;26.20;94.20;;;;;;5012911;28;20201;-80
2023/09/20 06:51:06;;;;;;;0.40;0.30;;;25.40;96.10;;;;;;4993907;28;20184;-80
2023/09/20 06:53:32;;;;;;;0.50;0.40;;;24.60;96.70;;;;;;5018005;28;20715;-77
2023/09/20 06:55:59;;;;;;;0.50;0.30;;;24.30;96.50;;;;;;5023324;28;20211;-80
2023/09/20 06:58:26;;;;;;;0.40;0.20;;;24.50;98.40;;;;;;5012251;28;20454;-82
2023/09/20 07:00:52;;;;;;;0.40;0.30;;;24.30;98.70;;;;;;4996270;28;20489;-82
2023/09/20 07:03:18;;;;;;;0.40;0.30;;;23.60;97.60;;;;;;5021168;28;21279;-79
2023/09/20 07:05:44;;;;;;;0.40;0.30;;;23.20;99.50;;;;;;4990851;28;20452;-79
2023/09/20 07:08:10;;;;;;;0.60;0.40;;;22.40;99.90;;;;;;5009417;28;20452;-80
2023/09/20 07:10:36;;;;;;;0.40;0.30;;;22.10;99.90;;;;;;5000080;28;20465;-80
2023/09/20 07:13:05;;;;;;;0.40;0.20;;;20.60;99.90;;;;;;4998859;28;20492;-81
2023/09/20 07:15:31;;;;;;;0.40;0.20;;;20.40;99.90;;;;;;4989957;28;20460;-83
2023/09/20 07:18:00;;;;;;;0.40;0.20;;;20.00;99.90;;;;;;5007936;28;21387;-80
2023/09/20 07:20:29;;;;;;;0.40;0.30;;;20.00;99.90;;;;;;4989091;28;20564;-81
2023/09/20 07:22:55;;;;;;;0.73;0.60;;;19.70;99.90;;;;;;5013958;28;21081;-80
2023/09/20 07:25:22;;;;;;;0.40;0.20;;;19.30;99.90;;;;;;5012931;28;20489;-79
2023/09/20 07:27:50;;;;;;;0.40;0.23;;;19.10;99.90;;;;;;5008236;28;20440;-81
2023/09/20 07:30:19;;;;;;;0.40;0.20;;;19.10;99.90;;;;;;5011772;28;20890;-80
2023/09/20 07:32:46;;;;;;;0.40;0.30;;;19.10;99.90;;;;;;5010301;28;21001;-79
2023/09/20 07:35:28;;;;;;;0.40;0.20;;;18.80;99.90;;;;;;5015862;28;20442;-81
2023/09/20 07:37:57;;;;;;;0.40;0.23;;;18.80;99.90;;;;;;5013222;28;21051;-80
2023/09/20 07:40:35;;;;;;;0.40;0.30;;;18.80;99.90;;;;;;4992555;28;20461;-79
2023/09/20 07:43:04;;;;;;;0.40;0.20;;;18.90;99.90;;;;;;5011624;28;21095;-81
2023/09/20 07:45:37;;;;;;;0.40;0.20;;;19.10;99.90;;;;;;4991725;28;20677;-79
2023/09/20 07:48:04;;;;;;;0.40;0.20;;;19.40;99.90;;;;;;5012720;28;20436;-83
2023/09/20 07:50:30;;;;;;;0.40;0.20;;;19.70;99.90;;;;;;4987653;28;20441;-81
2023/09/20 07:52:56;;;;;;;0.40;0.20;;;20.30;99.90;;;;;;5012366;28;20480;-80
2023/09/20 07:55:22;;;;;;;0.40;0.20;;;20.50;99.90;;;;;;5008510;28;20183;-78
2023/09/20 07:57:47;;;;;;;0.40;0.20;;;21.00;99.90;;;;;;5015041;28;20455;-81
2023/09/20 08:00:15;;;;;;;0.40;0.27;;;21.60;99.90;;;;;;5006818;28;20206;-77
2023/09/20 08:02:46;;;;;;;0.40;0.30;;;22.40;99.90;;;;;;5015710;28;20192;-81
2023/09/20 08:05:13;;;;;;;0.40;0.20;;;22.80;99.90;;;;;;5027295;28;20692;-80
2023/09/20 08:07:38;;;;;;;0.40;0.30;;;22.00;99.90;;;;;;5007118;28;20500;-83
2023/09/20 08:10:05;;;;;;;0.40;0.27;;;21.20;99.90;;;;;;5030382;28;20437;-80
2023/09/20 08:12:31;;;;;;;0.40;0.30;;;20.50;99.90;;;;;;5031123;28;20456;-80
2023/09/20 08:15:01;;;;;;;0.40;0.20;;;20.10;99.90;;;;;;5028304;28;20493;-77
2023/09/20 08:20:11;;;;;;;0.40;0.20;;;19.30;99.90;;;;;;5024278;28;20484;-81
2023/09/20 09:01:12;;;;;;;0.40;0.30;;;20.30;99.90;;;;;;5012879;28;20448;-82
2023/09/20 09:03:41;;;;;;;0.40;0.30;;;20.70;99.90;;;;;;4994757;28;20460;-82
2023/09/20 09:06:07;;;;;;;0.40;0.20;;;21.10;99.90;;;;;;4992125;28;20452;-84
2023/09/20 09:08:34;;;;;;;0.40;0.27;;;21.10;99.90;;;;;;4989835;28;20440;-83
2023/09/20 09:10:59;;;;;;;0.40;0.30;;;21.30;99.90;;;;;;5017187;28;20437;-82
2023/09/20 09:13:25;;;;;;;0.40;0.30;;;21.40;99.90;;;;;;5009160;28;21152;-82
2023/09/20 09:15:50;;;;;;;0.40;0.30;;;21.60;99.90;;;;;;5000157;28;20226;-77
2023/09/20 09:18:17;;;;;;;0.40;0.30;;;21.90;99.90;;;;;;5018832;28;20844;-85
2023/09/20 09:20:45;;;;;;;0.40;0.30;;;22.40;99.90;;;;;;4997795;28;20206;-83
2023/09/20 09:23:11;;;;;;;0.40;0.30;;;23.60;99.90;;;;;;5007164;28;20465;-81
2023/09/20 09:25:37;;;;;;;0.40;0.30;;;25.40;99.90;;;;;;5018981;28;20446;-80
2023/09/20 09:28:02;;;;;;;0.40;0.30;;;25.00;99.90;;;;;;4998453;28;20238;-84
2023/09/20 09:30:31;;;;;;;0.40;0.30;;;26.40;99.90;;;;;;5012194;28;20193;-79
2023/09/20 09:32:57;;;;;;;0.40;0.30;;;28.10;99.90;;;;;;5014824;28;20304;-81
2023/09/20 09:35:23;;;;;;;0.40;0.30;;;27.20;96.80;;;;;;5017149;28;20443;-81
2023/09/20 09:37:50;;;;;;;0.40;0.30;;;27.50;98.10;;;;;;5008212;28;20456;-81
2023/09/20 09:40:15;;;;;;;0.40;0.30;;;27.50;95.40;;;;;;5017645;28;20460;-80
2023/09/20 09:42:44;;;;;;;0.40;0.30;;;26.80;96.90;;;;;;5016199;28;20466;-81
2023/09/20 09:45:10;;;;;;;1.10;0.97;;;26.80;96.90;;;;;;5012299;28;20222;-84
2023/09/20 09:47:37;;;;;;;0.40;0.30;;;26.60;96.00;;;;;;5021234;28;20439;-80
2023/09/20 09:50:06;;;;;;;0.40;0.30;;;27.30;96.60;;;;;;5012053;28;20190;-79
2023/09/20 09:52:33;;;;;;;0.40;0.30;;;26.30;96.50;;;;;;5013344;28;20452;-84
2023/09/20 09:54:58;;;;;;;0.50;0.30;;;25.80;98.30;;;;;;5011467;28;20441;-78
2023/09/20 09:57:24;;;;;;;0.40;0.30;;;26.60;98.50;;;;;;5008605;28;20453;-82
2023/09/20 09:59:51;;;;;;;0.50;0.30;;;27.20;97.10;;;;;;5014998;28;20233;-75
2023/09/20 10:02:19;;;;;;;0.40;0.30;;;27.40;95.90;;;;;;5009292;28;20177;-82
2023/09/20 10:04:54;;;;;;;0.50;0.30;;;27.30;95.20;;;;;;4987838;28;20499;-78
2023/09/20 10:07:24;;;;;;;0.40;0.30;;;25.70;95.90;;;;;;5010329;28;21569;-81
2023/09/20 10:09:52;;;;;;;0.40;0.30;;;25.20;96.50;;;;;;5011463;28;20448;-83
2023/09/20 10:12:21;;;;;;;0.50;0.30;;;25.00;96.20;;;;;;4991485;28;20440;-82
2023/09/20 10:14:46;;;;;;;0.40;0.20;;;25.10;96.20;;;;;;5005050;28;22957;-79
2023/09/20 10:17:20;;;;;;;0.50;0.30;;;25.20;96.50;;;;;;4987557;28;20444;-84
2023/09/20 10:19:53;;;;;;;0.40;0.30;;;24.80;95.40;;;;;;5012210;28;20467;-82
2023/09/20 10:22:21;;;;;;;0.40;0.30;;;24.70;96.00;;;;;;5018898;28;20481;-77
2023/09/20 10:24:58;;;;;;;0.40;0.30;;;24.80;95.20;;;;;;5015547;28;20856;-82
2023/09/20 10:27:35;;;;;;;0.40;0.30;;;24.80;96.00;;;;;;5008773;28;20713;-80
2023/09/20 10:30:09;;;;;;;0.40;0.30;;;24.50;94.60;;;;;;5007574;28;20473;-80
2023/09/20 10:32:47;;;;;;;0.50;0.30;;;24.50;95.10;;;;;;5008225;28;20453;-84
2023/09/20 10:35:30;;;;;;;0.40;0.30;;;24.00;94.30;;;;;;4989561;28;20460;-79
2023/09/20 10:38:24;;;;;;;0.40;0.30;;;23.70;96.00;;;;;;5000132;28;20465;-82
2023/09/20 10:40:57;;;;;;;0.40;0.30;;;24.20;96.30;;;;;;5009651;28;20472;-79
2023/09/20 10:43:41;;;;;;;0.40;0.30;;;24.40;95.40;;;;;;5006706;28;20466;-83
2023/09/20 10:46:14;;;;;;;0.40;0.30;;;24.70;93.20;;;;;;5007335;28;20459;-81
2023/09/20 10:48:44;;;;;;;0.70;0.50;;;24.90;94.90;;;;;;5011222;28;20468;-78
2023/09/20 10:51:10;;;;;;;0.40;0.27;;;24.60;94.30;;;;;;5010231;28;20474;-82
2023/09/20 10:53:42;;;;;;;1.20;1.00;;;24.40;95.10;;;;;;4989252;28;20494;-85
2023/09/20 10:56:08;;;;;;;0.40;0.30;;;24.30;94.30;;;;;;4993336;28;20511;-84
2023/09/20 10:58:34;;;;;;;0.40;0.30;;;24.50;95.40;;;;;;4990054;28;20453;-83
2023/09/20 11:01:03;;;;;;;0.40;0.30;;;25.40;94.30;;;;;;5005471;28;20469;-81
2023/09/20 11:03:29;;;;;;;0.40;0.30;;;24.90;93.90;;;;;;5014089;28;20223;-81
2023/09/20 11:05:55;;;;;;;0.50;0.30;;;24.90;92.70;;;;;;4993409;28;20481;-80
2023/09/20 11:08:24;;;;;;;0.50;0.30;;;25.10;94.10;;;;;;5016757;28;20948;-79
2023/09/20 11:10:50;;;;;;;0.40;0.30;;;25.00;93.60;;;;;;5018960;28;20553;-82
2023/09/20 11:13:19;;;;;;;0.40;0.30;;;25.20;93.90;;;;;;5002868;28;20508;-84
2023/09/20 11:15:47;;;;;;;0.40;0.30;;;25.00;91.90;;;;;;4984303;28;20540;-83
2023/09/20 11:18:19;;;;;;;0.40;0.30;;;25.30;92.00;;;;;;4988036;28;20442;-80
2023/09/20 11:20:47;;;;;;;0.40;0.30;;;25.20;92.40;;;;;;4993543;28;20462;-83
2023/09/20 11:23:13;;;;;;;0.43;0.30;;;25.10;92.80;;;;;;5011434;28;20453;-78
2023/09/20 11:25:41;;;;;;;0.40;0.30;;;25.20;93.40;;;;;;4999188;28;20445;-80
2023/09/20 11:28:09;;;;;;;0.40;0.33;;;25.40;91.60;;;;;;5019261;28;20187;-76
2023/09/20 11:30:34;;;;;;;0.40;0.37;;;25.40;90.50;;;;;;5018808;28;20451;-82
2023/09/20 11:33:03;;;;;;;0.40;0.30;;;25.00;91.00;;;;;;5013536;28;20493;-79
2023/09/20 11:35:38;;;;;;;0.50;0.30;;;24.80;91.10;;;;;;5013201;28;20195;-85
2023/09/20 11:38:06;;;;;;;0.40;0.30;;;24.90;92.20;;;;;;5018833;28;20503;-81
2023/09/20 11:40:36;;;;;;;0.50;0.30;;;24.60;92.10;;;;;;5008690;28;20548;-82
2023/09/20 11:43:12;;;;;;;0.40;0.20;;;24.90;92.00;;;;;;5009871;28;20464;-83
2023/09/20 11:45:41;;;;;;;0.77;0.50;;;25.00;92.70;;;;;;5008558;28;20520;-81
2023/09/20 11:48:08;;;;;;;0.40;0.30;;;25.40;92.70;;;;;;5005982;28;20450;-79
2023/09/20 11:50:34;;;;;;;0.50;0.30;;;25.40;90.90;;;;;;5009320;28;20448;-79
2023/09/20 11:53:00;;;;;;;0.50;0.33;;;25.60;91.20;;;;;;5012448;28;20950;-80
2023/09/20 11:55:26;;;;;;;0.40;0.30;;;26.10;89.10;;;;;;4988182;28;21053;-81
2023/09/20 11:57:54;;;;;;;0.60;0.40;;;26.10;89.80;;;;;;4990104;28;20221;-80
2023/09/20 12:00:25;;;;;;;0.40;0.30;;;26.10;87.00;;;;;;5007227;28;20475;-78
2023/09/20 12:02:53;;;;;;;0.50;0.30;;;25.90;87.80;;;;;;5012823;28;20445;-83
2023/09/20 12:05:19;;;;;;;0.50;0.30;;;25.90;87.60;;;;;;5014580;28;21418;-81
2023/09/20 12:07:58;;;;;;;0.87;0.53;;;26.10;86.50;;;;;;5013495;28;20456;-81
2023/09/20 12:10:25;;;;;;;0.40;0.30;;;26.00;85.20;;;;;;4998874;28;20196;-83
2023/09/20 12:12:52;;;;;;;0.50;0.30;;;25.90;87.30;;;;;;4998455;28;20445;-81
2023/09/20 12:15:18;;;;;;;0.50;0.30;;;25.90;88.60;;;;;;5013106;28;20532;-77
2023/09/20 12:17:45;;;;;;;0.40;0.30;;;26.10;89.30;;;;;;5011812;28;20995;-84
2023/09/20 12:20:12;;;;;;;0.50;0.30;;;26.30;87.50;;;;;;4996430;28;20480;-82
2023/09/20 12:22:38;;;;;;;0.40;0.30;;;26.50;85.60;;;;;;5019251;28;20450;-82
2023/09/20 12:25:06;;;;;;;0.40;0.30;;;26.40;83.50;;;;;;5009434;28;20829;-83
2023/09/20 12:27:32;;;;;;;0.40;0.30;;;26.20;82.70;;;;;;4997016;28;20466;-83
2023/09/20 12:29:59;;;;;;;0.50;0.30;;;26.20;80.50;;;;;;4995046;28;20440;-81
2023/09/20 12:32:25;;;;;;;0.50;0.30;;;26.10;85.00;;;;;;5014855;28;20531;-79
2023/09/20 12:34:55;;;;;;;0.40;0.30;;;26.30;83.70;;;;;;5021740;28;20466;-81
2023/09/20 12:37:21;;;;;;;1.17;0.60;;;26.70;84.00;;;;;;5017602;28;20446;-78
2023/09/20 12:39:47;;;;;;;0.40;0.30;;;26.70;81.30;;;;;;5010097;28;20468;-83
2023/09/20 12:42:13;;;;;;;0.50;0.40;;;26.80;81.00;;;;;;5013067;28;20198;-83
2023/09/20 12:44:38;;;;;;;0.50;0.40;;;27.00;81.00;;;;;;5007753;28;20453;-85
2023/09/20 12:47:07;;;;;;;1.43;1.03;;;26.70;78.70;;;;;;5016789;28;20452;-85
2023/09/20 12:49:33;;;;;;;0.50;0.50;;;;;;;;;;4998440;28;20194;-82
2023/09/20 12:52:02;;;;;;;0.50;0.40;;;27.10;74.90;;;;;;5015068;28;20453;-79
2023/09/20 12:54:27;;;;;;;0.50;0.50;;;27.30;74.70;;;;;;5016071;28;20841;-78
2023/09/20 12:56:53;;;;;;;0.47;0.40;;;27.10;73.70;;;;;;4998927;28;20449;-79
2023/09/20 12:59:19;;;;;;;0.50;0.43;;;26.90;74.60;;;;;;5013966;28;20212;-83
2023/09/20 13:01:45;;;;;;;0.50;0.40;;;;;;;;;;5016941;28;22218;-78
2023/09/20 13:04:11;;;;;;;0.50;0.50;;;27.00;71.70;;;;;;4996907;28;20467;-84
2023/09/20 13:06:36;;;;;;;0.50;0.50;;;26.90;72.80;;;;;;4990912;28;20571;-83
2023/09/20 13:09:02;;;;;;;0.47;0.40;;;27.30;72.90;;;;;;5012655;28;20196;-81
2023/09/20 13:11:28;;;;;;;0.50;0.50;;;26.90;73.40;;;;;;5014750;28;20391;-84
2023/09/20 13:13:54;;;;;;;0.83;0.60;;;;;;;;;;5014661;28;20209;-85
2023/09/20 13:16:20;;;;;;;0.50;0.40;;;26.80;71.50;;;;;;5011492;28;20192;-84
2023/09/20 13:18:46;;;;;;;0.50;0.40;;;26.70;73.70;;;;;;5019479;28;21076;-77
2023/09/20 13:21:11;;;;;;;0.50;0.50;;;26.70;73.10;;;;;;5015452;28;20534;-80
2023/09/20 13:23:37;;;;;;;0.50;0.50;;;26.70;75.10;;;;;;5016209;28;20211;-81
2023/09/20 13:26:05;;;;;;;0.50;0.40;;;26.90;72.10;;;;;;5016823;28;20263;-82
2023/09/20 13:28:31;;;;;;;0.63;0.60;;;27.10;72.70;;;;;;5019134;28;20188;-77
2023/09/20 13:30:59;;;;;;;0.50;0.40;;;27.10;71.80;;;;;;5021716;28;20544;-80